Terminal Aerodrome Forecast
Issued by NWS Caribou, ME

Home | Current Version | Previous Version | Text Only | Print | Product List | Glossary On
Versions: 1 2 3 4 5 6 7 8 9 10 11 12 13 14 15 16 17
000
FTUS41 KCAR 272320
TAFCAR
TAF
KCAR 272320Z 2800/2824 VRB03KT P6SM BKN080
     FM280600 15005KT 2SM -SN BR OVC020
     FM280700 15007KT 1SM -SN BR OVC009
     FM281100 18009KT 3SM -SN BR OVC006
     FM281400 24011KT 6SM -SHSNRA OVC015
     FM281700 27015G25KT P6SM OVC025=

USA.gov is the U.S. government's official web portal to all federal, state and local government web resources and services.